Tropical Cyclones
[Index]
Main Index Home Page Stock Weather Photos Extreme Storms Discussion Storm News and Storm Chasing Reports Tropical Cyclones / Hurricanes / Typhoons Weather Data and Links Wild Fires / Bushfires Weather Observation Techniques Weather Picture Catalogue Tornado Pictures and Reports Stock Video Footage and DVDs for sale
Season 2005-2006 Tropical Cyclone DARYL Track Map
Season 2005-2006 Summaries: [BoM-AU] [JTWC-AU] [JTWC-SIO] [JTWC-SPAC] [JTWC-SH]
<<- Previous TC | BoM 2005-2006 Season | Next TC ->>

click for intensity scale information  Lat/long Grid: Show Hide

 Date Labels: Show Hide

Bureau of Meteorology Tropical Cyclone Data

Name: DARYL
Number: 893 / 200506_06

17 Jan 2006 00:00 UTC to 23 Jan 2006 00:00 UTC

    date/time    lat    long    hPa   cat  kts
2006-01-17 00   15.3   125.6    998         20          
2006-01-17 06   15.3   125.3    996         20          
2006-01-17 12   15.4   124.9    996         20          
2006-01-17 18   15.5   124.6    994    1    25          
2006-01-18 00   15.6   124.2    994    1    25          
2006-01-18 06   15.7   123.6    992    1    25          
2006-01-18 12   15.8   123.3    990    1    35          
2006-01-18 18   15.8   123.1    984    2    40          
2006-01-19 00   16.1   123.0    980    2    45          
2006-01-19 06   16.5   122.5    980    2    45          
2006-01-19 12   16.8   121.9    976    2    50          
2006-01-19 18   17.0   121.1    976    2    55          
2006-01-20 00   17.4   121.0    976    2    55          
2006-01-20 06   18.1   120.5    976    2    50          
2006-01-20 12   18.6   119.5    976    2    50          
2006-01-20 18   19.0   117.7    976    2    50          
2006-01-21 00   19.4   116.7    976    2    50          
2006-01-21 06   19.6   116.3    976    2    50          
2006-01-21 12   19.8   115.8    976    2    50          
2006-01-21 18   20.1   115.4    980    2    45          
2006-01-22 00   20.2   114.8    986    1    35          
2006-01-22 06   20.4   114.1    990    1    30          
2006-01-22 12   20.7   113.8    992    1    25          
2006-01-22 18   20.9   112.9    994    1    25          
2006-01-23 00   22.1   111.7    996         25          
Winds are 10-min average.

Tropical cyclone tracks developed by Michael Bath using data from the Bureau of Meteorology and Google Maps.


[Australian Severe Weather index] [Copyright Notice] [Email Contacts] [Search This Site] [Privacy Policy]
Document: tropical_cyclone_daryl.htm Updated: 29 June 2017